Whitecourt Airport

CYZU · 艾伯塔, 加拿大

罗盘
风向 的 风向 的 风向 到 风向 110° Whitecourt Airport 11/29
风: 3 kt, 1 beaufort

3 kt

1 kt
改变
0 ft 2.000 4.000 6.000 8.000 10.000
Cloud Cloud Cloud Cloud Cloud Cloud
BKN 9.000
METAR CYZU 251500Z 11003KT 070V130 15SM BKN090 09/03 A2959 RMK AC5 SLP034 DENSITY ALT 2800FT

METAR Whitecourt Airport - CYZU/YZU

Whitecourt Airport是,加拿大中的中型机场。 该机场位于纬度54,14390和经度-115,78700。 该机场有一条跑道: 11/29. 本场的ICAO机场代码为CYZU。 该机场的IATA代码为YZU。 机场在Edmonton FIR中。

该航空气象观测是针对Whitecourt Airport在2024年5月25日 09:00, 当地时间进行的。

机场观察

风向为110°,速度为3 kt。 风向在070°和130°之间变化。

可见度为15 mi。

有碎云在9.000 ft的高度。 破损或更高的上限为9.000 ft。

温度为9 °C,阵风为7 °C。 露点为3 °C,相对湿度为66%。 海平面上的气压为29,59 inHg (QNH)。

白天

今天,太阳从05:23升起,在21:56降落。 这适用于Whitecourt Airport,世界夏令时可能有所不同。 当地时间与世界标准时间之间的时差为-6 小时。 夏令时目前正在进行中。

公司介绍

我们没有关于这个机场的公司信息。

体会

到Vliegles.nl去找飞行课程,跳伞和其他飞行体验。 浏览页面,了解Whitecourt Airport附近所有可用的活动。 你也可以使用搜索功能来寻找你所在地附近的特定飞行课程、跳伞或其他飞行体验。

跑道

Id 标题 侧风 逆风 侧风 %
11/29 125°-305° 3 kt 26 %

逆风成分最大的方向会被突出显示,并用于横风计算。 这并不一定意味着这个方向在使用。

乌云

9.000 ft BKN 碎云

温度 & 天气

温度 9 °C
露点 3 °C
相对湿度 66%
风寒 7 °C
Kp-index 0 (0-9)

评论

SLP034海平面压力为29,63 inHg (29,63 inHg)
AC5 DENSITY ALT 2800FT

白天

日出
05:23
中午
13:40
日落
21:56 (12:34)

小工具

你想在你的网站上有一个关于Whitecourt Airport的当前航空天气(METAR)的小部件吗?

显示HTML代码
报告变更